createdAt,value
2022-12-19T00:02:39.050Z,2.05
2022-12-19T00:05:38.887Z,1.55
2022-12-19T00:08:39.000Z,1.55
2022-12-19T00:11:38.966Z,1.2
2022-12-19T00:14:38.944Z,1
2022-12-19T00:17:38.980Z,1.05
2022-12-19T00:20:38.837Z,0.9
2022-12-19T00:23:38.949Z,1.4
2022-12-19T00:26:38.860Z,0.8
2022-12-19T00:29:38.957Z,0.85
2022-12-19T00:32:38.986Z,1.25
2022-12-19T00:35:38.885Z,1.5
2022-12-19T00:38:38.870Z,1.1
2022-12-19T00:41:42.772Z,1.5
2022-12-19T00:44:38.890Z,0.95
2022-12-19T00:47:38.983Z,1.1
2022-12-19T00:50:38.903Z,1.4
2022-12-19T00:53:39.942Z,1.8
2022-12-19T00:56:39.399Z,1.65
2022-12-19T00:59:38.971Z,1.3
2022-12-19T01:02:39.282Z,1.55
2022-12-19T01:05:42.920Z,1.4
2022-12-19T01:08:39.045Z,1.15
2022-12-19T01:11:38.939Z,1.05
2022-12-19T01:14:39.031Z,0.8
2022-12-19T01:17:44.939Z,0.85
2022-12-19T01:20:39.059Z,1.85
2022-12-19T01:23:39.053Z,1.8
2022-12-19T01:26:38.960Z,1.65
2022-12-19T01:29:49.111Z,1.4
2022-12-19T01:32:38.995Z,1.8
2022-12-19T01:35:39.032Z,1.85
2022-12-19T01:38:39.069Z,1.8
2022-12-19T01:41:39.059Z,1.15
2022-12-19T01:44:39.072Z,1.35
2022-12-19T01:47:38.999Z,2.1
2022-12-19T01:50:43.234Z,2
2022-12-19T01:53:49.107Z,1.9
2022-12-19T01:56:39.080Z,0.85
2022-12-19T01:59:39.357Z,1.2
2022-12-19T02:02:39.077Z,1.25
2022-12-19T02:05:39.049Z,1.05
2022-12-19T02:08:39.011Z,0.95
2022-12-19T02:11:39.025Z,1.45
2022-12-19T02:14:39.029Z,0.4
2022-12-19T02:17:38.951Z,0.2
2022-12-19T02:20:38.992Z,0.25
2022-12-19T02:23:39.019Z,0.5
2022-12-19T02:26:39.066Z,0.6
2022-12-19T02:29:39.996Z,0.55
2022-12-19T02:32:38.989Z,1.65
2022-12-19T02:35:39.052Z,1.15
2022-12-19T02:38:39.100Z,0.85
2022-12-19T02:41:39.108Z,1.5
2022-12-19T02:44:39.100Z,1.35
2022-12-19T02:47:39.036Z,1.65
2022-12-19T02:50:39.063Z,1.75
2022-12-19T02:53:39.084Z,1.15
2022-12-19T02:56:39.122Z,0.8
2022-12-19T02:59:39.067Z,0.25
2022-12-19T03:02:39.144Z,0.8
2022-12-19T03:05:39.085Z,1.4
2022-12-19T03:08:39.149Z,1.45
2022-12-19T03:11:39.156Z,1.75
2022-12-19T03:14:39.016Z,1.3
2022-12-19T03:17:39.165Z,0.85
2022-12-19T03:20:39.077Z,0.65
2022-12-19T03:23:39.067Z,0.5
2022-12-19T03:26:39.125Z,0.65
2022-12-19T03:29:39.088Z,1.55
2022-12-19T03:32:39.231Z,1.7
2022-12-19T03:35:39.076Z,1.1
2022-12-19T03:38:39.117Z,1
2022-12-19T03:41:39.092Z,0.6
2022-12-19T03:44:39.345Z,1.95
2022-12-19T03:47:39.165Z,1.75
2022-12-19T03:50:39.197Z,1.05
2022-12-19T03:53:39.120Z,1.05
2022-12-19T03:56:39.244Z,1.75
2022-12-19T03:59:39.070Z,2
2022-12-19T04:02:39.101Z,2.4
2022-12-19T04:05:39.213Z,1.75
2022-12-19T04:08:39.089Z,0.6
2022-12-19T04:11:39.135Z,1.4
2022-12-19T04:14:39.173Z,1.9
2022-12-19T04:17:39.215Z,1.05
2022-12-19T04:20:39.081Z,1.1
2022-12-19T04:23:39.137Z,0.55
2022-12-19T04:26:39.205Z,1
2022-12-19T04:29:39.124Z,0.6
2022-12-19T04:32:39.139Z,1.15
2022-12-19T04:35:39.155Z,1.2
2022-12-19T04:38:39.133Z,1.1
2022-12-19T04:41:39.085Z,1.15
2022-12-19T04:44:39.172Z,1.5
2022-12-19T04:47:39.211Z,1.3
2022-12-19T04:50:39.446Z,1.3
2022-12-19T04:53:39.143Z,1.4
2022-12-19T04:56:39.147Z,1.25
2022-12-19T04:59:39.104Z,0.9
2022-12-19T05:02:39.492Z,1.35
2022-12-19T05:05:39.167Z,1.45
2022-12-19T05:08:39.181Z,1.35
2022-12-19T05:11:39.239Z,1.1
2022-12-19T05:14:39.239Z,1.75
2022-12-19T05:17:39.269Z,2.05
2022-12-19T05:20:39.154Z,2.2
2022-12-19T05:23:39.207Z,2.1
2022-12-19T05:26:39.217Z,3.3
2022-12-19T05:29:39.241Z,2.15
2022-12-19T05:32:39.266Z,2.65
2022-12-19T05:35:39.164Z,2.5
2022-12-19T05:38:39.210Z,1.8
2022-12-19T05:41:39.283Z,2.15
2022-12-19T05:44:39.100Z,2.1
2022-12-19T05:47:39.203Z,1.9
2022-12-19T05:50:39.181Z,1.85
2022-12-19T05:53:39.255Z,2.05
2022-12-19T05:56:39.256Z,1.9
2022-12-19T05:59:39.217Z,2.2
2022-12-19T06:02:39.615Z,2.3
2022-12-19T06:05:39.176Z,2.2
2022-12-19T06:08:39.207Z,2
2022-12-19T06:11:39.236Z,2.1
2022-12-19T06:14:39.157Z,2.1
2022-12-19T06:17:39.259Z,2.25
2022-12-19T06:20:39.971Z,1.65
2022-12-19T06:23:39.143Z,1.4
2022-12-19T06:26:39.237Z,1.5
2022-12-19T06:29:39.257Z,1.9
2022-12-19T06:32:39.471Z,2.1
2022-12-19T06:35:39.217Z,2.3
2022-12-19T06:38:39.216Z,1.65
2022-12-19T06:41:39.224Z,2.15
2022-12-19T06:44:39.276Z,1.8
2022-12-19T06:47:39.264Z,2.3
2022-12-19T06:50:39.337Z,2
2022-12-19T06:53:39.252Z,1.75
2022-12-19T06:56:39.327Z,1.45
2022-12-19T06:59:39.282Z,1.25
2022-12-19T07:02:39.493Z,1.25
2022-12-19T07:05:39.174Z,1.9
2022-12-19T07:08:39.320Z,2.65
2022-12-19T07:11:39.305Z,2.5
2022-12-19T07:14:39.268Z,2.65
2022-12-19T07:17:39.369Z,2.45
2022-12-19T07:20:45.289Z,2
2022-12-19T07:23:39.278Z,2.5
2022-12-19T07:26:39.336Z,2.55
2022-12-19T07:29:39.221Z,2.25
2022-12-19T07:32:39.296Z,1.75
2022-12-19T07:35:39.305Z,1.55
2022-12-19T07:38:39.375Z,1.65
2022-12-19T07:41:39.220Z,1.95
2022-12-19T07:44:42.185Z,2
2022-12-19T07:47:42.238Z,1.3
2022-12-19T07:50:39.337Z,1.3
2022-12-19T07:53:39.252Z,1.15
2022-12-19T07:56:39.295Z,2.3
2022-12-19T07:59:40.592Z,2.2
2022-12-19T08:02:39.498Z,2.05
2022-12-19T08:05:39.338Z,2.15
2022-12-19T08:08:39.268Z,1.8
2022-12-19T08:11:39.255Z,1.75
2022-12-19T08:14:39.245Z,1.65
2022-12-19T08:17:39.428Z,1.95
2022-12-19T08:20:39.382Z,1.55
2022-12-19T08:23:41.547Z,2.2
2022-12-19T08:26:47.496Z,1.35
2022-12-19T08:29:39.413Z,2
2022-12-19T08:32:39.673Z,1.8
2022-12-19T08:35:39.357Z,2.65
2022-12-19T08:38:39.292Z,2.45
2022-12-19T08:41:39.330Z,2.5
2022-12-19T08:44:39.344Z,2.1
2022-12-19T08:47:39.310Z,2.3
2022-12-19T08:50:39.436Z,2.25
2022-12-19T08:53:39.379Z,2.9
2022-12-19T08:56:46.663Z,3
2022-12-19T08:59:40.262Z,2.15
2022-12-19T09:02:40.079Z,2.3
2022-12-19T09:06:02.941Z,2.75
2022-12-19T09:08:39.356Z,1.7
2022-12-19T09:11:46.727Z,0.85
2022-12-19T09:14:39.415Z,0.75
2022-12-19T09:17:39.939Z,0.8
2022-12-19T09:20:39.324Z,1.05
2022-12-19T09:23:39.339Z,1.05
2022-12-19T09:26:39.513Z,1.9
2022-12-19T09:29:40.565Z,1.9
2022-12-19T09:32:40.753Z,1.3
2022-12-19T09:35:39.467Z,1.35
2022-12-19T09:38:39.452Z,1.75
2022-12-19T09:41:39.508Z,1
2022-12-19T09:44:39.459Z,1.9
2022-12-19T09:47:39.326Z,2.4
2022-12-19T09:50:39.502Z,2.35
2022-12-19T09:53:39.437Z,2.25
2022-12-19T09:56:46.063Z,2.05
2022-12-19T09:59:49.524Z,2.35
2022-12-19T10:02:39.694Z,2.05
2022-12-19T10:06:00.425Z,2.5
2022-12-19T10:08:45.442Z,1.85
2022-12-19T10:12:41.582Z,2.05
2022-12-19T10:14:39.398Z,2
2022-12-19T10:17:39.495Z,2.25
2022-12-19T10:20:39.599Z,2
2022-12-19T10:23:39.459Z,1.6
2022-12-19T10:26:39.367Z,1.7
2022-12-19T10:29:39.535Z,1.55
2022-12-19T10:32:39.383Z,1.85
2022-12-19T10:35:39.735Z,1.55
2022-12-19T10:38:45.487Z,0.95
2022-12-19T10:41:44.423Z,1.15
2022-12-19T10:44:39.603Z,1.3
2022-12-19T10:47:39.341Z,1.35
2022-12-19T10:50:39.412Z,0.9
2022-12-19T10:53:39.515Z,1.1
2022-12-19T10:56:39.449Z,1.55
2022-12-19T10:59:39.461Z,0.9
2022-12-19T11:02:39.957Z,1.8
2022-12-19T11:05:39.622Z,1.5
2022-12-19T11:08:39.551Z,1.7
2022-12-19T11:12:30.036Z,1.8
2022-12-19T11:16:55.581Z,1.35
2022-12-19T11:21:21.957Z,1.6
2022-12-19T11:25:57.789Z,1.5
2022-12-19T11:29:28.318Z,2.4
2022-12-19T11:29:29.091Z,1.95
2022-12-19T11:32:45.954Z,2.05
2022-12-19T11:35:39.435Z,2
2022-12-19T11:38:39.460Z,1.9
2022-12-19T11:41:39.599Z,1.95
2022-12-19T11:44:39.450Z,2.1
2022-12-19T11:47:39.466Z,1.9
2022-12-19T11:50:39.456Z,1.9
2022-12-19T11:53:39.492Z,2.5
2022-12-19T11:56:39.639Z,2.5
2022-12-19T11:59:39.520Z,2.65
2022-12-19T12:02:39.473Z,2.4
2022-12-19T12:05:39.565Z,2.35
2022-12-19T12:09:51.219Z,2.15
2022-12-19T12:14:41.436Z,2.35
2022-12-19T12:19:30.648Z,2.15
2022-12-19T12:23:09.471Z,1.65
2022-12-19T12:28:42.562Z,2.05
2022-12-19T12:31:03.787Z,1.35
2022-12-19T12:31:36.076Z,2.25
2022-12-19T12:31:37.436Z,1.75
2022-12-19T12:35:07.864Z,1.9
2022-12-19T12:37:45.936Z,1.85
2022-12-19T12:38:40.413Z,1.6
2022-12-19T12:41:40.971Z,1.95
2022-12-19T12:44:46.032Z,1.6
2022-12-19T12:47:39.544Z,1.6
2022-12-19T12:50:39.549Z,2.05
2022-12-19T12:53:39.677Z,1.35
2022-12-19T12:56:39.558Z,1.1
2022-12-19T12:59:39.512Z,1.15
2022-12-19T13:02:40.344Z,1.3
2022-12-19T13:05:39.609Z,0.65
2022-12-19T13:08:39.606Z,1.4
2022-12-19T13:11:39.598Z,1.3
2022-12-19T13:14:39.668Z,1.85
2022-12-19T13:17:39.653Z,2.8
2022-12-19T13:20:39.611Z,2.75
2022-12-19T13:23:39.511Z,2.35
2022-12-19T13:26:39.551Z,2.65
2022-12-19T13:29:39.518Z,2.65
2022-12-19T13:32:40.343Z,2.8
2022-12-19T13:36:26.337Z,2.45
2022-12-19T13:39:52.557Z,2.35
2022-12-19T13:41:39.561Z,2.3
2022-12-19T13:44:39.636Z,3
2022-12-19T13:47:39.700Z,2
2022-12-19T13:50:39.614Z,2.5
2022-12-19T13:53:39.716Z,2.5
2022-12-19T13:56:39.683Z,2.2
2022-12-19T13:59:39.724Z,2.45
2022-12-19T14:02:45.874Z,2.7
2022-12-19T14:06:14.357Z,2.95
2022-12-19T14:08:39.690Z,3.3
2022-12-19T14:12:05.767Z,2.6
2022-12-19T14:14:39.567Z,3.25
2022-12-19T14:17:39.660Z,2.7
2022-12-19T14:22:08.323Z,2.55
2022-12-19T14:23:44.688Z,2.35
2022-12-19T14:28:23.090Z,3.1
2022-12-19T14:30:02.445Z,2.7
2022-12-19T14:33:41.257Z,3.6
2022-12-19T14:36:09.451Z,3.05
2022-12-19T14:39:21.430Z,2.65
2022-12-19T14:41:39.621Z,3.1
2022-12-19T14:49:58.564Z,3
2022-12-19T14:49:58.575Z,3.25
2022-12-19T14:52:52.471Z,2.75
2022-12-19T14:54:19.636Z,1.9
2022-12-19T14:56:58.803Z,2.05
2022-12-19T14:59:39.780Z,1.5
2022-12-19T15:02:40.150Z,1.65
2022-12-19T15:05:42.026Z,1.1
2022-12-19T15:09:50.824Z,0.9
2022-12-19T15:11:53.551Z,1.6
2022-12-19T15:14:50.428Z,1.8
2022-12-19T15:17:39.584Z,2.2
2022-12-19T15:20:39.805Z,0.85
2022-12-19T15:23:39.707Z,1.35
2022-12-19T15:26:39.795Z,1.65
2022-12-19T15:29:39.753Z,1.5
2022-12-19T15:32:41.909Z,2.1
2022-12-19T15:35:39.681Z,2.25
2022-12-19T15:38:39.690Z,2.65
2022-12-19T15:41:39.693Z,3.2
2022-12-19T15:44:39.749Z,2.8
2022-12-19T15:47:39.765Z,2.6
2022-12-19T15:50:39.686Z,3.75
2022-12-19T15:53:42.170Z,3.95
2022-12-19T15:56:39.757Z,2.9
2022-12-19T15:59:39.808Z,3.1
2022-12-19T16:05:39.874Z,2.65
2022-12-19T16:08:39.728Z,3.6
2022-12-19T16:11:41.961Z,2.75
2022-12-19T16:14:42.675Z,2.95
2022-12-19T16:17:39.762Z,2.15
2022-12-19T16:20:39.755Z,3.6
2022-12-19T16:23:39.750Z,3.55
2022-12-19T16:26:39.872Z,2.75
2022-12-19T16:29:42.865Z,3.45
2022-12-19T16:32:39.690Z,2.55
2022-12-19T16:38:39.787Z,3.35
2022-12-19T16:41:44.561Z,3.2
2022-12-19T16:44:39.796Z,2.9
2022-12-19T16:47:40.811Z,2.85
2022-12-19T16:50:39.823Z,2.75
2022-12-19T16:53:39.836Z,3
2022-12-19T16:56:39.683Z,2.65
2022-12-19T16:59:39.826Z,2.55
2022-12-19T17:02:40.028Z,2.6
2022-12-19T17:05:39.853Z,2.9
2022-12-19T17:08:39.828Z,3.1
2022-12-19T17:11:39.695Z,3.15
2022-12-19T17:14:39.859Z,2.35
2022-12-19T17:17:39.714Z,2.7
2022-12-19T17:20:39.774Z,2.85
2022-12-19T17:23:39.778Z,2.95
2022-12-19T17:26:39.895Z,3.25
2022-12-19T17:29:39.828Z,3.45
2022-12-19T17:32:41.799Z,2.8
2022-12-19T17:35:39.822Z,2.85
2022-12-19T17:38:39.879Z,2.7
2022-12-19T17:41:39.953Z,2.8
2022-12-19T17:44:39.762Z,3.3
2022-12-19T17:47:39.805Z,2.8
2022-12-19T17:50:39.878Z,3.15
2022-12-19T17:53:39.807Z,2.7
2022-12-19T17:56:39.779Z,3.3
2022-12-19T17:59:39.762Z,3.25
2022-12-19T18:02:39.981Z,2.7
2022-12-19T18:05:39.870Z,2.7
2022-12-19T18:08:39.850Z,2.7
2022-12-19T18:11:43.196Z,2.85
2022-12-19T18:14:39.796Z,3.25
2022-12-19T18:17:39.827Z,2.7
2022-12-19T18:20:39.829Z,2.25
2022-12-19T18:23:39.888Z,2.25
2022-12-19T18:26:39.940Z,2.35
2022-12-19T18:29:39.876Z,1.9
2022-12-19T18:32:39.841Z,2
2022-12-19T18:35:39.962Z,1.8
2022-12-19T18:38:39.957Z,2.35
2022-12-19T18:41:39.838Z,1.85
2022-12-19T18:44:42.635Z,1.6
2022-12-19T18:47:39.830Z,1.35
2022-12-19T18:50:39.878Z,1.3
2022-12-19T18:53:39.795Z,1.5
2022-12-19T18:56:39.908Z,1.15
2022-12-19T18:59:39.834Z,1.1
2022-12-19T19:02:40.380Z,1
2022-12-19T19:05:39.884Z,1.1
2022-12-19T19:08:39.886Z,0.8
2022-12-19T19:11:39.786Z,1.15
2022-12-19T19:14:39.974Z,1.75
2022-12-19T19:17:40.022Z,1.75
2022-12-19T19:20:39.823Z,2
2022-12-19T19:23:39.974Z,1.85
2022-12-19T19:26:39.966Z,2.05
2022-12-19T19:29:39.893Z,1.55
2022-12-19T19:32:39.893Z,1.35
2022-12-19T19:35:39.896Z,1.6
2022-12-19T19:38:39.997Z,1.4
2022-12-19T19:41:39.981Z,1.05
2022-12-19T19:44:39.908Z,1.1
2022-12-19T19:47:39.945Z,1
2022-12-19T19:50:39.853Z,1.15
2022-12-19T19:53:39.909Z,0.65
2022-12-19T19:56:39.815Z,0.55
2022-12-19T19:59:39.920Z,0.65
2022-12-19T20:02:40.484Z,0.55
2022-12-19T20:05:39.928Z,0.3
2022-12-19T20:08:41.522Z,0.55
2022-12-19T20:11:39.944Z,0.35
2022-12-19T20:14:39.939Z,0.3
2022-12-19T20:17:39.941Z,0.1
2022-12-19T20:20:40.189Z,0.1
2022-12-19T20:23:39.868Z,0
2022-12-19T20:26:40.038Z,0
2022-12-19T20:29:42.267Z,0
2022-12-19T20:32:39.898Z,0.45
2022-12-19T20:35:40.078Z,0.45
2022-12-19T20:38:39.921Z,0.65
2022-12-19T20:41:39.977Z,1.05
2022-12-19T20:44:40.051Z,0.7
2022-12-19T20:47:40.038Z,1.15
2022-12-19T20:50:44.050Z,0.7
2022-12-19T20:53:39.905Z,0.65
2022-12-19T20:56:39.913Z,0.55
2022-12-19T20:59:39.937Z,0.7
2022-12-19T21:03:25.465Z,0.25
2022-12-19T21:05:40.002Z,0.55
2022-12-19T21:08:40.114Z,0.45
2022-12-19T21:11:40.076Z,0.95
2022-12-19T21:14:39.953Z,0.4
2022-12-19T21:17:39.986Z,0.15
2022-12-19T21:20:39.954Z,0.6
2022-12-19T21:23:40.066Z,0.4
2022-12-19T21:26:39.960Z,0.1
2022-12-19T21:29:40.057Z,0.25
2022-12-19T21:32:40.041Z,0.3
2022-12-19T21:35:39.997Z,0.35
2022-12-19T21:38:40.029Z,0.3
2022-12-19T21:41:40.038Z,0.4
2022-12-19T21:44:39.930Z,0.6
2022-12-19T21:47:39.986Z,0.6
2022-12-19T21:50:39.965Z,0.55
2022-12-19T21:53:40.065Z,0.35
2022-12-19T21:56:40.008Z,0.45
2022-12-19T21:59:40.112Z,0.55
2022-12-19T22:02:50.718Z,0.15
2022-12-19T22:05:39.946Z,0.3
2022-12-19T22:08:40.018Z,0.35
2022-12-19T22:11:40.058Z,0.3
2022-12-19T22:14:40.051Z,0.65
2022-12-19T22:17:40.029Z,0.25
2022-12-19T22:20:40.038Z,0
2022-12-19T22:23:40.024Z,0.75
2022-12-19T22:26:40.075Z,0.6
2022-12-19T22:29:39.974Z,0.3
2022-12-19T22:32:40.008Z,0.2
2022-12-19T22:35:40.025Z,0
2022-12-19T22:38:40.052Z,0
2022-12-19T22:41:39.965Z,0.15
2022-12-19T22:44:40.181Z,0.35
2022-12-19T22:47:40.087Z,0.45
2022-12-19T22:50:40.087Z,0.4
2022-12-19T22:53:40.053Z,0.1
2022-12-19T22:56:40.141Z,0.15
2022-12-19T22:59:40.057Z,0.3
2022-12-19T23:02:40.556Z,0.6
2022-12-19T23:05:40.142Z,0.25
2022-12-19T23:08:40.035Z,0.35
2022-12-19T23:11:40.036Z,0.45
2022-12-19T23:14:40.146Z,0.35
2022-12-19T23:17:40.045Z,0.65
2022-12-19T23:20:40.165Z,0.2
2022-12-19T23:23:40.249Z,0.15
2022-12-19T23:26:40.058Z,0.15
2022-12-19T23:29:40.026Z,0.2
2022-12-19T23:32:45.523Z,0.05
2022-12-19T23:35:40.012Z,0.4
2022-12-19T23:38:40.137Z,0.45
2022-12-19T23:41:40.374Z,0
2022-12-19T23:44:40.144Z,0.35
2022-12-19T23:47:40.099Z,0.2
2022-12-19T23:50:40.173Z,0.5
2022-12-19T23:53:40.147Z,0.2
2022-12-19T23:56:40.203Z,0.7
2022-12-19T23:59:40.196Z,0.25
